Tuesday, February 09, 2016
15:58 UTC
  |  Log In   |  Register Free
Airport Search:

Yellowstone Regional Airport
(KCOD)

Yellowstone Regional Airport Diagram
No Airport Diagram Available

FAA data valid effective Dec 10 2015 - Feb 4 2016 (unless otherwise noted).

 
 
 
 
 
 
 
 
 
 
 
 
 
 
Current Aviation Weather for KCOD

Weather Summary


The most recent METAR observation for COD was updated at: 12:55 UTC
METAR for KCOD is not available. Closest METAR is for KPOY
KCOD  (most recent observation was updatred at 91:53 UTC)
091535Z AUTO 00000KT 10SM CLR 00/M06 A3033 RMK AO1

KPOY  (23.1 nm SW)   (most recent observation was updated at 91:53 UTC)
091535Z AUTO 10SM CLR 01/M06 A3034 RMK AO2

KU68  (34.1 nm SW)   (most recent observation was updated at 91:53 UTC)
091535Z AUTO 00000KT 10SM CLR M03/M06 A3038 RMK AO2

TAF for KCOD is not available.
KCOD
091122Z 0912/1012 VRB05KT P6SM SCT250 FM091800 05007KT P6SM SCT250 FM100100 20006KT P6SM SCT250 FM100700 26014G20KT P6SM SCT250 AMD LTD TO CLD VIS AND WIND

GlobalAir.com is loading additional information.
 Current Weather at COD
30.0 F° (-1.0 C°)

North winds at 0.0 mph
Pressure:
30.35 in
Humidity:
64%
Wind:
North at 0.0 mph
Dew Point:
19.4 F° (-7.0 C°)
Visibility:
10.00 mi
COD NOAA Radar




Find All Airport Services Find A Hotel Find A Rental Car Find A Golf Course Find A Restaurant $100 Hamburger



Airport Weather Forecast for KCOD

Translated METAR for KCOD (1535 UTC)
METAR:
KCOD 091535Z AUTO 00000KT 10SM CLR 00/M06 A3033 RMK AO1
Conditions at:
KCOD (Yellowstone Rgnl, WY) observed 1535 UTC 09 February 2016
Temperature:
0°C (32°F)
Dewpoint:
-6°C (21.2°F) [RH = 64]
Pressure:
30.33 inches Hg (1027.1 mb)
Winds:
from the N (000 degrees) at 0 mph (0 knots: 0 m/s)
Visibility:
10 mile(s)
Ceiling:
at least 12,000 feet AGL
Clouds:
Clear below 12,000 feet AGL
Remarks:
site is un-manned
site is automated and does NOT have a precipitation sensor

Translated TAF for KCOD (Yellowstone Rgnl, WY) (1122 UTC)
TAF text:
KCOD 091122Z 0912/1012 VRB05KT P6SM SCT250
Forecast period:
Tuesday Feb 09 2016 12:00 UTC - Wednesday Feb 10 2016 12:00 UTC
Forecast type:
FROM: standard forecast or significant change
Winds:
variable wind direction at 5.8 mph (5 knots: 2.6 m/s)
Visibility:
6 or more mile(s) (9.7+ km)
Ceiling:
at least 12,000 feet AGL
Clouds:
Scattered Clouds at 25,000 feet AGL
Weather:
no significant weather observed at this time
TAF text:
FM091800 05007KT P6SM SCT250
Forecast period:
Tuesday Feb 09 2016 18:00 UTC - Wednesday Feb 10 2016 01:00 UTC
Forecast type:
FROM: standard forecast or significant change
Winds:
from the NE (050 degrees) at 8.1 mph (7 knots: 3.6 m/s)
Visibility:
6 or more mile(s) (9.7+ km)
Ceiling:
at least 12,000 feet AGL
Clouds:
Scattered Clouds at 25,000 feet AGL
Weather:
no significant weather observed at this time
TAF text:
FM100100 20006KT P6SM SCT250
Forecast period:
Wednesday Feb 10 2016 01:00 UTC - Wednesday Feb 10 2016 07:00 UTC
Forecast type:
FROM: standard forecast or significant change
Winds:
from the SSW (200 degrees) at 6.9 mph (6 knots: 3.1 m/s)
Visibility:
6 or more mile(s) (9.7+ km)
Ceiling:
at least 12,000 feet AGL
Clouds:
Scattered Clouds at 25,000 feet AGL
Weather:
no significant weather observed at this time
TAF text:
FM100700 26014G20KT P6SM SCT250 LTD TO CLD VIS AND WIND
Forecast period:
Wednesday Feb 10 2016 07:00 UTC - Wednesday Feb 10 2016 12:00 UTC
Forecast type:
FROM: standard forecast or significant change
Winds:
from the W (260 degrees) at 16.1 mph (14 knots: 7.2 m/s)
gusting to 23 mph (20 knots: 10.3 m/s)
Visibility:
6 or more mile(s) (9.7+ km)
Ceiling:
at least 12,000 feet AGL
Clouds:
Scattered Clouds at 25,000 feet AGL
Weather:
no significant weather observed at this time
FBO's on the Field
FBO Company Facility Photos Services Transportation Aviation Fuel Prices: Prices include tax
Catering Weather Repair Courtesy Rental Type 100LL JetA JetA+ MOGAS 8087
 
Choice Aviation, LLC

This FBO has not yet been rated
FS:Avfuel
Last Updated: Feb-08
Login to update fuel prices
SS:
Contact Choice Aviation, LLCMore FBO Information
 
Add another FBO Facility Photos Catering Weather Repair Courtesy Rental Type 100LL JetA JetA+ MOGAS 8087
Services Transportation Aviation Fuel Prices: Prices include tax


model-print
model-print
model-print
model-print